sensor_id;sensor_type;location;lat;lon;timestamp;P1;durP1;ratioP1;P2;durP2;ratioP2
67585;SDS011;55785;47.946;20.540;2023-09-08T00:01:07;5.90;;;2.53;;
67585;SDS011;55785;47.946;20.540;2023-09-08T00:03:32;3.50;;;2.38;;
67585;SDS011;55785;47.946;20.540;2023-09-08T00:05:57;3.88;;;2.45;;
67585;SDS011;55785;47.946;20.540;2023-09-08T00:08:23;5.50;;;2.58;;
67585;SDS011;55785;47.946;20.540;2023-09-08T00:10:48;2.95;;;2.15;;
67585;SDS011;55785;47.946;20.540;2023-09-08T00:13:13;5.70;;;2.90;;
67585;SDS011;55785;47.946;20.540;2023-09-08T00:15:38;4.40;;;2.50;;
67585;SDS011;55785;47.946;20.540;2023-09-08T00:18:03;3.80;;;2.45;;
67585;SDS011;55785;47.946;20.540;2023-09-08T00:20:29;7.75;;;2.70;;
67585;SDS011;55785;47.946;20.540;2023-09-08T00:22:54;4.50;;;2.42;;
67585;SDS011;55785;47.946;20.540;2023-09-08T00:25:19;4.00;;;2.25;;
67585;SDS011;55785;47.946;20.540;2023-09-08T00:27:44;5.85;;;2.67;;
67585;SDS011;55785;47.946;20.540;2023-09-08T00:30:09;3.92;;;2.78;;
67585;SDS011;55785;47.946;20.540;2023-09-08T00:32:35;3.83;;;2.38;;
67585;SDS011;55785;47.946;20.540;2023-09-08T00:35:00;4.53;;;2.47;;
67585;SDS011;55785;47.946;20.540;2023-09-08T00:37:25;4.75;;;2.50;;
67585;SDS011;55785;47.946;20.540;2023-09-08T00:39:50;4.18;;;2.33;;
67585;SDS011;55785;47.946;20.540;2023-09-08T00:42:15;5.00;;;2.38;;
67585;SDS011;55785;47.946;20.540;2023-09-08T00:44:41;4.78;;;2.80;;
67585;SDS011;55785;47.946;20.540;2023-09-08T00:47:06;4.57;;;2.83;;
67585;SDS011;55785;47.946;20.540;2023-09-08T00:49:31;3.45;;;2.35;;
67585;SDS011;55785;47.946;20.540;2023-09-08T00:51:56;6.38;;;2.72;;
67585;SDS011;55785;47.946;20.540;2023-09-08T00:54:21;4.50;;;2.63;;
67585;SDS011;55785;47.946;20.540;2023-09-08T00:56:47;4.80;;;2.42;;
67585;SDS011;55785;47.946;20.540;2023-09-08T00:59:13;3.58;;;2.47;;
67585;SDS011;55785;47.946;20.540;2023-09-08T01:01:38;5.22;;;3.05;;
67585;SDS011;55785;47.946;20.540;2023-09-08T01:04:03;4.55;;;2.70;;
67585;SDS011;55785;47.946;20.540;2023-09-08T01:06:29;3.67;;;2.67;;
67585;SDS011;55785;47.946;20.540;2023-09-08T01:08:54;6.03;;;2.85;;
67585;SDS011;55785;47.946;20.540;2023-09-08T01:11:20;3.88;;;2.60;;
67585;SDS011;55785;47.946;20.540;2023-09-08T01:13:46;4.65;;;2.72;;
67585;SDS011;55785;47.946;20.540;2023-09-08T01:16:11;5.55;;;3.20;;
67585;SDS011;55785;47.946;20.540;2023-09-08T01:18:37;3.65;;;2.45;;
67585;SDS011;55785;47.946;20.540;2023-09-08T01:21:04;4.10;;;2.50;;
67585;SDS011;55785;47.946;20.540;2023-09-08T01:23:41;5.15;;;2.95;;
67585;SDS011;55785;47.946;20.540;2023-09-08T01:26:15;3.95;;;2.70;;
67585;SDS011;55785;47.946;20.540;2023-09-08T01:28:42;3.78;;;2.72;;
67585;SDS011;55785;47.946;20.540;2023-09-08T01:31:08;3.35;;;2.33;;
67585;SDS011;55785;47.946;20.540;2023-09-08T01:33:33;3.85;;;2.80;;
67585;SDS011;55785;47.946;20.540;2023-09-08T01:35:58;3.40;;;2.47;;
67585;SDS011;55785;47.946;20.540;2023-09-08T01:38:24;3.33;;;2.50;;
67585;SDS011;55785;47.946;20.540;2023-09-08T01:40:49;3.88;;;2.58;;
67585;SDS011;55785;47.946;20.540;2023-09-08T01:43:14;5.43;;;3.05;;
67585;SDS011;55785;47.946;20.540;2023-09-08T01:45:40;4.32;;;2.80;;
67585;SDS011;55785;47.946;20.540;2023-09-08T01:48:05;4.55;;;2.92;;
67585;SDS011;55785;47.946;20.540;2023-09-08T01:50:30;4.10;;;2.65;;
67585;SDS011;55785;47.946;20.540;2023-09-08T01:52:55;4.88;;;2.95;;
67585;SDS011;55785;47.946;20.540;2023-09-08T01:55:20;3.95;;;2.72;;
67585;SDS011;55785;47.946;20.540;2023-09-08T01:57:45;6.45;;;2.95;;
67585;SDS011;55785;47.946;20.540;2023-09-08T02:00:11;4.82;;;2.72;;
67585;SDS011;55785;47.946;20.540;2023-09-08T02:02:36;5.53;;;2.90;;
67585;SDS011;55785;47.946;20.540;2023-09-08T02:05:01;4.53;;;2.85;;
67585;SDS011;55785;47.946;20.540;2023-09-08T02:07:27;6.90;;;3.08;;
67585;SDS011;55785;47.946;20.540;2023-09-08T02:09:52;3.90;;;2.67;;
67585;SDS011;55785;47.946;20.540;2023-09-08T02:12:17;5.05;;;2.63;;
67585;SDS011;55785;47.946;20.540;2023-09-08T02:14:42;3.88;;;2.60;;
67585;SDS011;55785;47.946;20.540;2023-09-08T02:17:07;5.82;;;2.70;;
67585;SDS011;55785;47.946;20.540;2023-09-08T02:19:32;3.88;;;2.40;;
67585;SDS011;55785;47.946;20.540;2023-09-08T02:21:58;5.18;;;2.75;;
67585;SDS011;55785;47.946;20.540;2023-09-08T02:24:23;4.80;;;2.80;;
67585;SDS011;55785;47.946;20.540;2023-09-08T02:26:48;6.32;;;2.70;;
67585;SDS011;55785;47.946;20.540;2023-09-08T02:29:14;3.85;;;2.58;;
67585;SDS011;55785;47.946;20.540;2023-09-08T02:31:39;4.40;;;2.95;;
67585;SDS011;55785;47.946;20.540;2023-09-08T02:34:04;4.60;;;2.88;;
67585;SDS011;55785;47.946;20.540;2023-09-08T02:36:29;4.65;;;2.85;;
67585;SDS011;55785;47.946;20.540;2023-09-08T02:38:55;4.00;;;2.50;;
67585;SDS011;55785;47.946;20.540;2023-09-08T02:41:20;5.60;;;2.72;;
67585;SDS011;55785;47.946;20.540;2023-09-08T02:43:45;4.55;;;2.85;;
67585;SDS011;55785;47.946;20.540;2023-09-08T02:46:11;4.90;;;2.75;;
67585;SDS011;55785;47.946;20.540;2023-09-08T02:48:36;4.78;;;2.78;;
67585;SDS011;55785;47.946;20.540;2023-09-08T02:51:01;4.60;;;2.80;;
67585;SDS011;55785;47.946;20.540;2023-09-08T02:53:26;4.78;;;2.90;;
67585;SDS011;55785;47.946;20.540;2023-09-08T02:55:51;5.10;;;2.92;;
67585;SDS011;55785;47.946;20.540;2023-09-08T02:58:17;3.95;;;2.75;;
67585;SDS011;55785;47.946;20.540;2023-09-08T03:00:42;4.18;;;2.45;;
67585;SDS011;55785;47.946;20.540;2023-09-08T03:03:07;4.13;;;2.92;;
67585;SDS011;55785;47.946;20.540;2023-09-08T03:05:32;4.53;;;2.65;;
67585;SDS011;55785;47.946;20.540;2023-09-08T03:07:57;6.15;;;3.00;;
67585;SDS011;55785;47.946;20.540;2023-09-08T03:10:22;4.85;;;2.83;;
67585;SDS011;55785;47.946;20.540;2023-09-08T03:12:48;7.55;;;3.28;;
67585;SDS011;55785;47.946;20.540;2023-09-08T03:15:13;4.45;;;2.58;;
67585;SDS011;55785;47.946;20.540;2023-09-08T03:17:38;6.40;;;2.60;;
67585;SDS011;55785;47.946;20.540;2023-09-08T03:20:03;4.40;;;2.55;;
67585;SDS011;55785;47.946;20.540;2023-09-08T03:22:28;3.95;;;3.00;;
67585;SDS011;55785;47.946;20.540;2023-09-08T03:24:53;4.85;;;2.75;;
67585;SDS011;55785;47.946;20.540;2023-09-08T03:27:19;6.63;;;2.65;;
67585;SDS011;55785;47.946;20.540;2023-09-08T03:29:44;3.67;;;2.58;;
67585;SDS011;55785;47.946;20.540;2023-09-08T03:32:09;4.80;;;2.85;;
67585;SDS011;55785;47.946;20.540;2023-09-08T03:34:34;5.15;;;2.58;;
67585;SDS011;55785;47.946;20.540;2023-09-08T03:36:59;5.07;;;2.80;;
67585;SDS011;55785;47.946;20.540;2023-09-08T03:39:24;5.28;;;2.75;;
67585;SDS011;55785;47.946;20.540;2023-09-08T03:41:50;3.78;;;2.55;;
67585;SDS011;55785;47.946;20.540;2023-09-08T03:44:15;4.38;;;2.67;;
67585;SDS011;55785;47.946;20.540;2023-09-08T03:46:40;3.80;;;2.60;;
67585;SDS011;55785;47.946;20.540;2023-09-08T03:49:05;4.40;;;2.63;;
67585;SDS011;55785;47.946;20.540;2023-09-08T03:51:30;5.68;;;2.90;;
67585;SDS011;55785;47.946;20.540;2023-09-08T03:53:55;6.97;;;2.40;;
67585;SDS011;55785;47.946;20.540;2023-09-08T03:56:21;3.70;;;2.50;;
67585;SDS011;55785;47.946;20.540;2023-09-08T03:58:47;4.90;;;2.85;;
67585;SDS011;55785;47.946;20.540;2023-09-08T04:01:12;4.38;;;2.63;;
67585;SDS011;55785;47.946;20.540;2023-09-08T04:03:37;3.55;;;2.50;;
67585;SDS011;55785;47.946;20.540;2023-09-08T04:06:02;6.25;;;2.67;;
67585;SDS011;55785;47.946;20.540;2023-09-08T04:08:27;4.60;;;2.38;;
67585;SDS011;55785;47.946;20.540;2023-09-08T04:10:52;5.35;;;2.63;;
67585;SDS011;55785;47.946;20.540;2023-09-08T04:13:18;4.78;;;2.15;;
67585;SDS011;55785;47.946;20.540;2023-09-08T04:15:43;6.43;;;2.33;;
67585;SDS011;55785;47.946;20.540;2023-09-08T04:18:08;4.10;;;2.40;;
67585;SDS011;55785;47.946;20.540;2023-09-08T04:20:33;3.65;;;2.45;;
67585;SDS011;55785;47.946;20.540;2023-09-08T04:22:58;6.72;;;3.00;;
67585;SDS011;55785;47.946;20.540;2023-09-08T04:25:23;4.25;;;2.72;;
67585;SDS011;55785;47.946;20.540;2023-09-08T04:27:49;4.07;;;2.60;;
67585;SDS011;55785;47.946;20.540;2023-09-08T04:30:14;4.57;;;2.67;;
67585;SDS011;55785;47.946;20.540;2023-09-08T04:32:39;4.47;;;2.30;;
67585;SDS011;55785;47.946;20.540;2023-09-08T04:35:04;4.30;;;2.60;;
67585;SDS011;55785;47.946;20.540;2023-09-08T04:37:30;4.15;;;2.50;;
67585;SDS011;55785;47.946;20.540;2023-09-08T04:39:55;4.30;;;2.83;;
67585;SDS011;55785;47.946;20.540;2023-09-08T04:42:20;3.97;;;2.58;;
67585;SDS011;55785;47.946;20.540;2023-09-08T04:44:45;5.30;;;2.88;;
67585;SDS011;55785;47.946;20.540;2023-09-08T04:47:10;4.28;;;2.60;;
67585;SDS011;55785;47.946;20.540;2023-09-08T04:49:35;5.70;;;2.75;;
67585;SDS011;55785;47.946;20.540;2023-09-08T04:52:00;7.07;;;2.55;;
67585;SDS011;55785;47.946;20.540;2023-09-08T04:54:26;4.50;;;2.55;;
67585;SDS011;55785;47.946;20.540;2023-09-08T04:56:51;4.40;;;2.30;;
67585;SDS011;55785;47.946;20.540;2023-09-08T04:59:16;5.03;;;2.60;;
67585;SDS011;55785;47.946;20.540;2023-09-08T05:01:41;3.95;;;2.58;;
67585;SDS011;55785;47.946;20.540;2023-09-08T05:04:06;4.20;;;2.67;;
67585;SDS011;55785;47.946;20.540;2023-09-08T05:06:31;4.40;;;2.55;;
67585;SDS011;55785;47.946;20.540;2023-09-08T05:08:57;3.72;;;2.47;;
67585;SDS011;55785;47.946;20.540;2023-09-08T05:11:23;4.97;;;2.72;;
67585;SDS011;55785;47.946;20.540;2023-09-08T05:13:48;3.70;;;2.40;;
67585;SDS011;55785;47.946;20.540;2023-09-08T05:16:14;4.93;;;2.35;;
67585;SDS011;55785;47.946;20.540;2023-09-08T05:18:39;4.82;;;2.90;;
67585;SDS011;55785;47.946;20.540;2023-09-08T05:21:05;3.63;;;2.55;;
67585;SDS011;55785;47.946;20.540;2023-09-08T05:23:30;4.90;;;2.40;;
67585;SDS011;55785;47.946;20.540;2023-09-08T05:25:55;3.55;;;2.40;;
67585;SDS011;55785;47.946;20.540;2023-09-08T05:28:21;3.58;;;2.30;;
67585;SDS011;55785;47.946;20.540;2023-09-08T05:30:46;3.70;;;2.35;;
67585;SDS011;55785;47.946;20.540;2023-09-08T05:33:11;3.78;;;2.50;;
67585;SDS011;55785;47.946;20.540;2023-09-08T05:35:36;3.58;;;2.13;;
67585;SDS011;55785;47.946;20.540;2023-09-08T05:38:01;3.53;;;2.10;;
67585;SDS011;55785;47.946;20.540;2023-09-08T05:40:26;3.90;;;2.20;;
67585;SDS011;55785;47.946;20.540;2023-09-08T05:42:51;4.32;;;2.28;;
67585;SDS011;55785;47.946;20.540;2023-09-08T05:45:17;3.30;;;2.30;;
67585;SDS011;55785;47.946;20.540;2023-09-08T05:47:42;3.55;;;2.40;;
67585;SDS011;55785;47.946;20.540;2023-09-08T05:50:07;4.18;;;2.35;;
67585;SDS011;55785;47.946;20.540;2023-09-08T05:52:32;4.00;;;2.33;;
67585;SDS011;55785;47.946;20.540;2023-09-08T05:54:57;3.08;;;2.17;;
67585;SDS011;55785;47.946;20.540;2023-09-08T05:57:23;3.92;;;2.22;;
67585;SDS011;55785;47.946;20.540;2023-09-08T05:59:48;4.05;;;2.20;;
67585;SDS011;55785;47.946;20.540;2023-09-08T06:02:13;4.13;;;2.60;;
67585;SDS011;55785;47.946;20.540;2023-09-08T06:04:38;3.17;;;1.80;;
67585;SDS011;55785;47.946;20.540;2023-09-08T06:07:03;4.72;;;2.10;;
67585;SDS011;55785;47.946;20.540;2023-09-08T06:09:28;3.38;;;1.92;;
67585;SDS011;55785;47.946;20.540;2023-09-08T06:11:53;3.30;;;2.03;;
67585;SDS011;55785;47.946;20.540;2023-09-08T06:14:19;3.92;;;1.88;;
67585;SDS011;55785;47.946;20.540;2023-09-08T06:16:44;4.15;;;1.92;;
67585;SDS011;55785;47.946;20.540;2023-09-08T06:19:09;2.58;;;1.70;;
67585;SDS011;55785;47.946;20.540;2023-09-08T06:21:34;3.67;;;2.08;;
67585;SDS011;55785;47.946;20.540;2023-09-08T06:23:59;4.75;;;2.05;;
67585;SDS011;55785;47.946;20.540;2023-09-08T06:26:24;3.17;;;1.90;;
67585;SDS011;55785;47.946;20.540;2023-09-08T06:28:50;3.60;;;1.70;;
67585;SDS011;55785;47.946;20.540;2023-09-08T06:31:15;3.13;;;1.70;;
67585;SDS011;55785;47.946;20.540;2023-09-08T06:33:40;4.47;;;2.10;;
67585;SDS011;55785;47.946;20.540;2023-09-08T06:36:05;3.00;;;1.80;;
67585;SDS011;55785;47.946;20.540;2023-09-08T06:38:31;3.40;;;2.05;;
67585;SDS011;55785;47.946;20.540;2023-09-08T06:40:56;3.60;;;2.10;;
67585;SDS011;55785;47.946;20.540;2023-09-08T06:43:21;3.00;;;1.93;;
67585;SDS011;55785;47.946;20.540;2023-09-08T06:45:47;3.60;;;1.90;;
67585;SDS011;55785;47.946;20.540;2023-09-08T06:48:12;3.47;;;2.08;;
67585;SDS011;55785;47.946;20.540;2023-09-08T06:50:37;4.20;;;1.90;;
67585;SDS011;55785;47.946;20.540;2023-09-08T06:53:02;2.80;;;2.00;;
67585;SDS011;55785;47.946;20.540;2023-09-08T06:55:28;2.83;;;2.00;;
67585;SDS011;55785;47.946;20.540;2023-09-08T06:57:53;4.20;;;2.15;;
67585;SDS011;55785;47.946;20.540;2023-09-08T07:00:18;3.40;;;2.03;;
67585;SDS011;55785;47.946;20.540;2023-09-08T07:02:43;3.63;;;2.00;;
67585;SDS011;55785;47.946;20.540;2023-09-08T07:05:08;3.10;;;1.80;;
67585;SDS011;55785;47.946;20.540;2023-09-08T07:07:34;3.00;;;2.00;;
67585;SDS011;55785;47.946;20.540;2023-09-08T07:09:59;4.40;;;2.10;;
67585;SDS011;55785;47.946;20.540;2023-09-08T07:12:24;3.20;;;1.98;;
67585;SDS011;55785;47.946;20.540;2023-09-08T07:14:49;3.85;;;2.38;;
67585;SDS011;55785;47.946;20.540;2023-09-08T07:17:14;3.10;;;2.00;;
67585;SDS011;55785;47.946;20.540;2023-09-08T07:19:39;3.17;;;2.20;;
67585;SDS011;55785;47.946;20.540;2023-09-08T07:22:05;3.67;;;2.00;;
67585;SDS011;55785;47.946;20.540;2023-09-08T07:24:30;2.57;;;1.93;;
67585;SDS011;55785;47.946;20.540;2023-09-08T07:26:55;3.90;;;2.40;;
67585;SDS011;55785;47.946;20.540;2023-09-08T07:29:20;3.28;;;1.90;;
67585;SDS011;55785;47.946;20.540;2023-09-08T07:31:45;5.03;;;2.13;;
67585;SDS011;55785;47.946;20.540;2023-09-08T07:34:10;3.88;;;1.77;;
67585;SDS011;55785;47.946;20.540;2023-09-08T07:36:36;3.10;;;2.17;;
67585;SDS011;55785;47.946;20.540;2023-09-08T07:39:01;3.35;;;2.05;;
67585;SDS011;55785;47.946;20.540;2023-09-08T07:41:26;4.28;;;1.90;;
67585;SDS011;55785;47.946;20.540;2023-09-08T07:43:51;3.15;;;1.92;;
67585;SDS011;55785;47.946;20.540;2023-09-08T07:46:17;3.60;;;1.90;;
67585;SDS011;55785;47.946;20.540;2023-09-08T07:48:42;3.28;;;2.25;;
67585;SDS011;55785;47.946;20.540;2023-09-08T07:51:07;3.80;;;1.87;;
67585;SDS011;55785;47.946;20.540;2023-09-08T07:53:32;4.03;;;1.98;;
67585;SDS011;55785;47.946;20.540;2023-09-08T07:55:57;2.83;;;1.90;;
67585;SDS011;55785;47.946;20.540;2023-09-08T07:58:22;4.47;;;2.10;;
67585;SDS011;55785;47.946;20.540;2023-09-08T08:00:48;2.87;;;2.00;;
67585;SDS011;55785;47.946;20.540;2023-09-08T08:03:13;3.50;;;2.25;;
67585;SDS011;55785;47.946;20.540;2023-09-08T08:05:38;3.40;;;2.03;;
67585;SDS011;55785;47.946;20.540;2023-09-08T08:08:03;3.63;;;2.00;;
67585;SDS011;55785;47.946;20.540;2023-09-08T08:10:28;3.15;;;1.98;;
67585;SDS011;55785;47.946;20.540;2023-09-08T08:12:54;3.03;;;2.20;;
67585;SDS011;55785;47.946;20.540;2023-09-08T08:15:19;3.78;;;2.20;;
67585;SDS011;55785;47.946;20.540;2023-09-08T08:17:45;4.07;;;2.00;;
67585;SDS011;55785;47.946;20.540;2023-09-08T08:20:10;3.23;;;1.90;;
67585;SDS011;55785;47.946;20.540;2023-09-08T08:22:36;3.03;;;2.17;;
67585;SDS011;55785;47.946;20.540;2023-09-08T08:25:02;3.40;;;2.10;;
67585;SDS011;55785;47.946;20.540;2023-09-08T08:27:27;3.15;;;2.03;;
67585;SDS011;55785;47.946;20.540;2023-09-08T08:29:52;3.17;;;1.87;;
67585;SDS011;55785;47.946;20.540;2023-09-08T08:32:17;3.65;;;2.08;;
67585;SDS011;55785;47.946;20.540;2023-09-08T08:34:43;2.97;;;2.17;;
67585;SDS011;55785;47.946;20.540;2023-09-08T08:37:08;2.67;;;1.83;;
67585;SDS011;55785;47.946;20.540;2023-09-08T08:39:33;2.77;;;1.80;;
67585;SDS011;55785;47.946;20.540;2023-09-08T08:41:58;3.80;;;2.03;;
67585;SDS011;55785;47.946;20.540;2023-09-08T08:44:23;3.40;;;1.90;;
67585;SDS011;55785;47.946;20.540;2023-09-08T08:46:49;4.20;;;1.85;;
67585;SDS011;55785;47.946;20.540;2023-09-08T08:49:15;3.10;;;2.10;;
67585;SDS011;55785;47.946;20.540;2023-09-08T08:51:42;3.03;;;1.95;;
67585;SDS011;55785;47.946;20.540;2023-09-08T08:54:09;3.42;;;1.90;;
67585;SDS011;55785;47.946;20.540;2023-09-08T08:56:35;3.75;;;2.00;;
67585;SDS011;55785;47.946;20.540;2023-09-08T08:59:01;3.97;;;1.98;;
67585;SDS011;55785;47.946;20.540;2023-09-08T09:01:26;4.10;;;2.00;;
67585;SDS011;55785;47.946;20.540;2023-09-08T09:03:52;3.08;;;2.00;;
67585;SDS011;55785;47.946;20.540;2023-09-08T09:06:17;2.65;;;1.80;;
67585;SDS011;55785;47.946;20.540;2023-09-08T09:08:43;4.63;;;2.03;;
67585;SDS011;55785;47.946;20.540;2023-09-08T09:11:08;3.17;;;2.00;;
67585;SDS011;55785;47.946;20.540;2023-09-08T09:13:34;2.72;;;1.80;;
67585;SDS011;55785;47.946;20.540;2023-09-08T09:15:59;3.58;;;2.08;;
67585;SDS011;55785;47.946;20.540;2023-09-08T09:18:24;2.55;;;1.67;;
67585;SDS011;55785;47.946;20.540;2023-09-08T09:20:53;4.37;;;1.73;;
67585;SDS011;55785;47.946;20.540;2023-09-08T09:23:28;3.47;;;1.80;;
67585;SDS011;55785;47.946;20.540;2023-09-08T09:28:18;3.92;;;2.08;;
67585;SDS011;55785;47.946;20.540;2023-09-08T09:30:48;3.77;;;2.10;;
67585;SDS011;55785;47.946;20.540;2023-09-08T09:33:13;3.33;;;2.22;;
67585;SDS011;55785;47.946;20.540;2023-09-08T09:35:39;3.22;;;1.75;;
67585;SDS011;55785;47.946;20.540;2023-09-08T09:38:05;3.15;;;1.85;;
67585;SDS011;55785;47.946;20.540;2023-09-08T09:40:30;2.97;;;1.90;;
67585;SDS011;55785;47.946;20.540;2023-09-08T09:42:55;3.13;;;1.90;;
67585;SDS011;55785;47.946;20.540;2023-09-08T09:45:20;2.42;;;1.75;;
67585;SDS011;55785;47.946;20.540;2023-09-08T09:47:49;4.38;;;2.05;;
67585;SDS011;55785;47.946;20.540;2023-09-08T09:50:15;2.88;;;1.70;;
67585;SDS011;55785;47.946;20.540;2023-09-08T09:52:51;2.72;;;1.75;;
67585;SDS011;55785;47.946;20.540;2023-09-08T09:55:20;3.03;;;2.00;;
67585;SDS011;55785;47.946;20.540;2023-09-08T09:57:45;2.90;;;1.70;;
67585;SDS011;55785;47.946;20.540;2023-09-08T10:00:11;2.80;;;1.95;;
67585;SDS011;55785;47.946;20.540;2023-09-08T10:02:36;3.47;;;2.00;;
67585;SDS011;55785;47.946;20.540;2023-09-08T10:05:09;3.20;;;2.03;;
67585;SDS011;55785;47.946;20.540;2023-09-08T10:07:35;3.33;;;2.42;;
67585;SDS011;55785;47.946;20.540;2023-09-08T10:10:00;4.68;;;1.95;;
67585;SDS011;55785;47.946;20.540;2023-09-08T10:12:25;2.77;;;2.00;;
67585;SDS011;55785;47.946;20.540;2023-09-08T10:14:51;4.25;;;2.15;;
67585;SDS011;55785;47.946;20.540;2023-09-08T10:17:19;3.15;;;1.80;;
67585;SDS011;55785;47.946;20.540;2023-09-08T10:19:47;4.00;;;1.98;;
67585;SDS011;55785;47.946;20.540;2023-09-08T10:22:13;4.22;;;2.38;;
67585;SDS011;55785;47.946;20.540;2023-09-08T10:24:39;3.45;;;2.30;;
67585;SDS011;55785;47.946;20.540;2023-09-08T10:27:10;4.53;;;2.17;;
67585;SDS011;55785;47.946;20.540;2023-09-08T10:29:36;3.92;;;2.10;;
67585;SDS011;55785;47.946;20.540;2023-09-08T10:32:01;4.22;;;2.05;;
67585;SDS011;55785;47.946;20.540;2023-09-08T10:34:27;3.22;;;1.95;;
67585;SDS011;55785;47.946;20.540;2023-09-08T10:36:52;5.13;;;1.90;;
67585;SDS011;55785;47.946;20.540;2023-09-08T10:39:30;3.78;;;2.13;;
67585;SDS011;55785;47.946;20.540;2023-09-08T10:44:39;3.40;;;2.10;;
67585;SDS011;55785;47.946;20.540;2023-09-08T10:47:05;3.60;;;2.13;;
67585;SDS011;55785;47.946;20.540;2023-09-08T10:49:33;2.70;;;1.83;;
67585;SDS011;55785;47.946;20.540;2023-09-08T10:52:08;3.78;;;1.92;;
67585;SDS011;55785;47.946;20.540;2023-09-08T10:54:43;2.85;;;2.05;;
67585;SDS011;55785;47.946;20.540;2023-09-08T10:57:15;3.42;;;2.00;;
67585;SDS011;55785;47.946;20.540;2023-09-08T10:59:53;5.28;;;2.00;;
67585;SDS011;55785;47.946;20.540;2023-09-08T11:02:40;3.55;;;1.75;;
67585;SDS011;55785;47.946;20.540;2023-09-08T11:07:29;2.42;;;1.90;;
67585;SDS011;55785;47.946;20.540;2023-09-08T11:09:54;2.60;;;1.70;;
67585;SDS011;55785;47.946;20.540;2023-09-08T11:12:19;3.40;;;1.90;;
67585;SDS011;55785;47.946;20.540;2023-09-08T11:14:44;3.10;;;1.90;;
67585;SDS011;55785;47.946;20.540;2023-09-08T11:17:09;3.50;;;1.97;;
67585;SDS011;55785;47.946;20.540;2023-09-08T11:19:50;3.03;;;1.67;;
67585;SDS011;55785;47.946;20.540;2023-09-08T11:22:18;3.30;;;1.90;;
67585;SDS011;55785;47.946;20.540;2023-09-08T11:24:44;3.28;;;1.95;;
67585;SDS011;55785;47.946;20.540;2023-09-08T11:27:10;4.80;;;2.05;;
67585;SDS011;55785;47.946;20.540;2023-09-08T11:29:35;2.97;;;1.90;;
67585;SDS011;55785;47.946;20.540;2023-09-08T11:32:01;4.88;;;1.77;;
67585;SDS011;55785;47.946;20.540;2023-09-08T11:34:27;3.50;;;1.90;;
67585;SDS011;55785;47.946;20.540;2023-09-08T11:36:53;2.45;;;1.48;;
67585;SDS011;55785;47.946;20.540;2023-09-08T11:39:18;2.80;;;1.83;;
67585;SDS011;55785;47.946;20.540;2023-09-08T11:41:43;2.83;;;1.93;;
67585;SDS011;55785;47.946;20.540;2023-09-08T11:44:09;2.80;;;1.80;;
67585;SDS011;55785;47.946;20.540;2023-09-08T11:46:34;5.95;;;1.80;;
67585;SDS011;55785;47.946;20.540;2023-09-08T11:48:59;2.93;;;1.60;;
67585;SDS011;55785;47.946;20.540;2023-09-08T11:51:25;3.23;;;1.90;;
67585;SDS011;55785;47.946;20.540;2023-09-08T11:53:50;3.40;;;1.90;;
67585;SDS011;55785;47.946;20.540;2023-09-08T11:56:16;3.00;;;1.77;;
67585;SDS011;55785;47.946;20.540;2023-09-08T11:58:41;2.90;;;1.70;;
67585;SDS011;55785;47.946;20.540;2023-09-08T12:01:06;2.97;;;1.60;;
67585;SDS011;55785;47.946;20.540;2023-09-08T12:03:32;1.98;;;1.45;;
67585;SDS011;55785;47.946;20.540;2023-09-08T12:05:57;2.80;;;1.60;;
67585;SDS011;55785;47.946;20.540;2023-09-08T12:08:24;2.65;;;1.67;;
67585;SDS011;55785;47.946;20.540;2023-09-08T12:10:49;2.92;;;1.75;;
67585;SDS011;55785;47.946;20.540;2023-09-08T12:13:21;4.97;;;1.80;;
67585;SDS011;55785;47.946;20.540;2023-09-08T12:15:47;2.53;;;1.73;;
67585;SDS011;55785;47.946;20.540;2023-09-08T12:18:12;2.60;;;1.67;;
67585;SDS011;55785;47.946;20.540;2023-09-08T12:20:38;2.00;;;1.50;;
67585;SDS011;55785;47.946;20.540;2023-09-08T12:23:05;2.80;;;1.73;;
67585;SDS011;55785;47.946;20.540;2023-09-08T12:25:30;2.65;;;1.77;;
67585;SDS011;55785;47.946;20.540;2023-09-08T12:27:55;2.87;;;1.67;;
67585;SDS011;55785;47.946;20.540;2023-09-08T12:30:21;2.43;;;1.60;;
67585;SDS011;55785;47.946;20.540;2023-09-08T12:32:47;2.22;;;1.70;;
67585;SDS011;55785;47.946;20.540;2023-09-08T12:35:13;2.67;;;1.60;;
67585;SDS011;55785;47.946;20.540;2023-09-08T12:37:38;1.85;;;1.50;;
67585;SDS011;55785;47.946;20.540;2023-09-08T12:40:03;4.07;;;1.75;;
67585;SDS011;55785;47.946;20.540;2023-09-08T12:42:29;2.50;;;1.50;;
67585;SDS011;55785;47.946;20.540;2023-09-08T12:44:54;2.60;;;1.70;;
67585;SDS011;55785;47.946;20.540;2023-09-08T12:47:19;2.65;;;1.70;;
67585;SDS011;55785;47.946;20.540;2023-09-08T12:49:44;1.92;;;1.50;;
67585;SDS011;55785;47.946;20.540;2023-09-08T12:52:10;2.00;;;1.47;;
67585;SDS011;55785;47.946;20.540;2023-09-08T12:54:35;3.22;;;1.77;;
67585;SDS011;55785;47.946;20.540;2023-09-08T12:57:01;2.25;;;1.60;;
67585;SDS011;55785;47.946;20.540;2023-09-08T12:59:26;3.80;;;1.65;;
67585;SDS011;55785;47.946;20.540;2023-09-08T13:01:51;2.90;;;1.60;;
67585;SDS011;55785;47.946;20.540;2023-09-08T13:04:17;2.30;;;1.80;;
67585;SDS011;55785;47.946;20.540;2023-09-08T13:06:42;2.43;;;1.70;;
67585;SDS011;55785;47.946;20.540;2023-09-08T13:09:07;3.03;;;1.70;;
67585;SDS011;55785;47.946;20.540;2023-09-08T13:11:32;2.60;;;1.70;;
67585;SDS011;55785;47.946;20.540;2023-09-08T13:13:57;3.55;;;1.58;;
67585;SDS011;55785;47.946;20.540;2023-09-08T13:16:22;2.33;;;1.57;;
67585;SDS011;55785;47.946;20.540;2023-09-08T13:18:48;2.23;;;1.50;;
67585;SDS011;55785;47.946;20.540;2023-09-08T13:21:13;3.43;;;1.57;;
67585;SDS011;55785;47.946;20.540;2023-09-08T13:23:38;2.40;;;1.43;;
67585;SDS011;55785;47.946;20.540;2023-09-08T13:26:03;1.97;;;1.60;;
67585;SDS011;55785;47.946;20.540;2023-09-08T13:28:28;1.93;;;1.50;;
67585;SDS011;55785;47.946;20.540;2023-09-08T13:30:53;2.50;;;1.70;;
67585;SDS011;55785;47.946;20.540;2023-09-08T13:33:19;2.65;;;1.60;;
67585;SDS011;55785;47.946;20.540;2023-09-08T13:35:44;2.20;;;1.50;;
67585;SDS011;55785;47.946;20.540;2023-09-08T13:38:09;4.20;;;1.63;;
67585;SDS011;55785;47.946;20.540;2023-09-08T13:40:34;2.60;;;1.70;;
67585;SDS011;55785;47.946;20.540;2023-09-08T13:42:59;2.47;;;1.73;;
67585;SDS011;55785;47.946;20.540;2023-09-08T13:45:25;2.42;;;1.70;;
67585;SDS011;55785;47.946;20.540;2023-09-08T13:47:50;2.80;;;1.73;;
67585;SDS011;55785;47.946;20.540;2023-09-08T13:50:15;2.23;;;1.63;;
67585;SDS011;55785;47.946;20.540;2023-09-08T13:52:40;2.07;;;1.40;;
67585;SDS011;55785;47.946;20.540;2023-09-08T13:55:05;1.93;;;1.53;;
67585;SDS011;55785;47.946;20.540;2023-09-08T13:57:31;2.55;;;1.70;;
67585;SDS011;55785;47.946;20.540;2023-09-08T13:59:56;3.10;;;1.55;;
67585;SDS011;55785;47.946;20.540;2023-09-08T14:02:21;2.65;;;1.63;;
67585;SDS011;55785;47.946;20.540;2023-09-08T14:04:46;2.87;;;1.60;;
67585;SDS011;55785;47.946;20.540;2023-09-08T14:07:11;3.40;;;1.63;;
67585;SDS011;55785;47.946;20.540;2023-09-08T14:09:37;3.27;;;1.70;;
67585;SDS011;55785;47.946;20.540;2023-09-08T14:12:02;1.87;;;1.40;;
67585;SDS011;55785;47.946;20.540;2023-09-08T14:14:27;2.13;;;1.40;;
67585;SDS011;55785;47.946;20.540;2023-09-08T14:16:52;2.77;;;1.70;;
67585;SDS011;55785;47.946;20.540;2023-09-08T14:19:17;3.23;;;1.50;;
67585;SDS011;55785;47.946;20.540;2023-09-08T14:21:43;3.30;;;1.80;;
67585;SDS011;55785;47.946;20.540;2023-09-08T14:24:08;2.73;;;1.40;;
67585;SDS011;55785;47.946;20.540;2023-09-08T14:26:33;2.77;;;1.70;;
67585;SDS011;55785;47.946;20.540;2023-09-08T14:28:58;2.92;;;1.60;;
67585;SDS011;55785;47.946;20.540;2023-09-08T14:31:23;2.23;;;1.57;;